sensor_id;sensor_type;location;lat;lon;timestamp;P1;durP1;ratioP1;P2;durP2;ratioP2
47529;SDS011;33272;51.922;7.730;2023-06-14T00:00:45;3.60;;;2.40;;
47529;SDS011;33272;51.922;7.730;2023-06-14T00:03:13;5.20;;;2.33;;
47529;SDS011;33272;51.922;7.730;2023-06-14T00:05:42;3.93;;;2.43;;
47529;SDS011;33272;51.922;7.730;2023-06-14T00:08:13;3.93;;;2.50;;
47529;SDS011;33272;51.922;7.730;2023-06-14T00:10:40;3.50;;;2.50;;
47529;SDS011;33272;51.922;7.730;2023-06-14T00:13:07;3.67;;;2.33;;
47529;SDS011;33272;51.922;7.730;2023-06-14T00:15:35;5.40;;;2.33;;
47529;SDS011;33272;51.922;7.730;2023-06-14T00:18:02;5.60;;;2.97;;
47529;SDS011;33272;51.922;7.730;2023-06-14T00:20:30;4.27;;;2.77;;
47529;SDS011;33272;51.922;7.730;2023-06-14T00:22:58;7.90;;;3.07;;
47529;SDS011;33272;51.922;7.730;2023-06-14T00:25:27;3.87;;;2.60;;
47529;SDS011;33272;51.922;7.730;2023-06-14T00:27:54;5.47;;;2.67;;
47529;SDS011;33272;51.922;7.730;2023-06-14T00:30:23;3.50;;;2.63;;
47529;SDS011;33272;51.922;7.730;2023-06-14T00:32:55;4.27;;;2.70;;
47529;SDS011;33272;51.922;7.730;2023-06-14T00:35:23;5.67;;;3.00;;
47529;SDS011;33272;51.922;7.730;2023-06-14T00:37:50;3.93;;;3.00;;
47529;SDS011;33272;51.922;7.730;2023-06-14T00:40:17;4.77;;;3.00;;
47529;SDS011;33272;51.922;7.730;2023-06-14T00:42:45;3.90;;;2.50;;
47529;SDS011;33272;51.922;7.730;2023-06-14T00:45:12;2.80;;;2.43;;
47529;SDS011;33272;51.922;7.730;2023-06-14T00:47:40;3.37;;;2.63;;
47529;SDS011;33272;51.922;7.730;2023-06-14T00:50:09;2.80;;;2.30;;
47529;SDS011;33272;51.922;7.730;2023-06-14T00:52:36;5.27;;;2.13;;
47529;SDS011;33272;51.922;7.730;2023-06-14T00:55:04;4.10;;;2.50;;
47529;SDS011;33272;51.922;7.730;2023-06-14T00:57:32;5.87;;;2.63;;
47529;SDS011;33272;51.922;7.730;2023-06-14T01:00:04;5.73;;;2.30;;
47529;SDS011;33272;51.922;7.730;2023-06-14T01:02:34;4.90;;;2.63;;
47529;SDS011;33272;51.922;7.730;2023-06-14T01:05:02;6.77;;;2.93;;
47529;SDS011;33272;51.922;7.730;2023-06-14T01:07:33;4.43;;;2.50;;
47529;SDS011;33272;51.922;7.730;2023-06-14T01:10:16;4.60;;;2.73;;
47529;SDS011;33272;51.922;7.730;2023-06-14T01:13:04;4.77;;;2.50;;
47529;SDS011;33272;51.922;7.730;2023-06-14T01:15:39;2.93;;;2.57;;
47529;SDS011;33272;51.922;7.730;2023-06-14T01:18:06;6.97;;;2.83;;
47529;SDS011;33272;51.922;7.730;2023-06-14T01:20:42;5.57;;;2.87;;
47529;SDS011;33272;51.922;7.730;2023-06-14T01:23:13;4.23;;;2.47;;
47529;SDS011;33272;51.922;7.730;2023-06-14T01:25:40;5.70;;;2.83;;
47529;SDS011;33272;51.922;7.730;2023-06-14T01:28:10;3.97;;;2.43;;
47529;SDS011;33272;51.922;7.730;2023-06-14T01:30:38;6.17;;;2.57;;
47529;SDS011;33272;51.922;7.730;2023-06-14T01:33:10;4.20;;;2.70;;
47529;SDS011;33272;51.922;7.730;2023-06-14T01:35:39;5.60;;;3.10;;
47529;SDS011;33272;51.922;7.730;2023-06-14T01:38:07;3.60;;;2.70;;
47529;SDS011;33272;51.922;7.730;2023-06-14T01:40:36;3.97;;;2.60;;
47529;SDS011;33272;51.922;7.730;2023-06-14T01:43:05;3.93;;;2.77;;
47529;SDS011;33272;51.922;7.730;2023-06-14T01:45:33;4.97;;;2.80;;
47529;SDS011;33272;51.922;7.730;2023-06-14T01:48:00;5.27;;;2.60;;
47529;SDS011;33272;51.922;7.730;2023-06-14T01:50:28;5.30;;;3.40;;
47529;SDS011;33272;51.922;7.730;2023-06-14T01:52:56;3.87;;;3.00;;
47529;SDS011;33272;51.922;7.730;2023-06-14T01:55:23;5.53;;;2.80;;
47529;SDS011;33272;51.922;7.730;2023-06-14T01:57:52;4.87;;;2.57;;
47529;SDS011;33272;51.922;7.730;2023-06-14T02:00:20;4.77;;;2.60;;
47529;SDS011;33272;51.922;7.730;2023-06-14T02:02:47;2.90;;;2.60;;
47529;SDS011;33272;51.922;7.730;2023-06-14T02:05:14;3.87;;;2.60;;
47529;SDS011;33272;51.922;7.730;2023-06-14T02:07:43;3.27;;;2.97;;
47529;SDS011;33272;51.922;7.730;2023-06-14T02:10:11;6.90;;;2.70;;
47529;SDS011;33272;51.922;7.730;2023-06-14T02:12:39;5.67;;;2.70;;
47529;SDS011;33272;51.922;7.730;2023-06-14T02:15:08;4.13;;;2.70;;
47529;SDS011;33272;51.922;7.730;2023-06-14T02:17:42;3.43;;;2.70;;
47529;SDS011;33272;51.922;7.730;2023-06-14T02:20:09;4.93;;;2.80;;
47529;SDS011;33272;51.922;7.730;2023-06-14T02:22:37;3.17;;;2.60;;
47529;SDS011;33272;51.922;7.730;2023-06-14T02:25:04;5.60;;;3.00;;
47529;SDS011;33272;51.922;7.730;2023-06-14T02:27:32;3.10;;;2.80;;
47529;SDS011;33272;51.922;7.730;2023-06-14T02:29:59;4.50;;;2.80;;
47529;SDS011;33272;51.922;7.730;2023-06-14T02:32:28;4.67;;;2.80;;
47529;SDS011;33272;51.922;7.730;2023-06-14T02:34:55;5.53;;;2.80;;
47529;SDS011;33272;51.922;7.730;2023-06-14T02:37:22;3.70;;;2.90;;
47529;SDS011;33272;51.922;7.730;2023-06-14T02:39:49;3.53;;;2.80;;
47529;SDS011;33272;51.922;7.730;2023-06-14T02:42:16;3.20;;;2.87;;
47529;SDS011;33272;51.922;7.730;2023-06-14T02:44:43;3.90;;;2.70;;
47529;SDS011;33272;51.922;7.730;2023-06-14T02:47:10;4.23;;;2.70;;
47529;SDS011;33272;51.922;7.730;2023-06-14T02:49:38;3.53;;;2.87;;
47529;SDS011;33272;51.922;7.730;2023-06-14T02:52:05;2.73;;;2.20;;
47529;SDS011;33272;51.922;7.730;2023-06-14T02:54:34;5.17;;;3.00;;
47529;SDS011;33272;51.922;7.730;2023-06-14T02:57:01;4.23;;;3.00;;
47529;SDS011;33272;51.922;7.730;2023-06-14T02:59:28;3.90;;;2.67;;
47529;SDS011;33272;51.922;7.730;2023-06-14T03:01:55;5.07;;;2.83;;
47529;SDS011;33272;51.922;7.730;2023-06-14T03:04:22;4.47;;;2.70;;
47529;SDS011;33272;51.922;7.730;2023-06-14T03:06:52;3.70;;;2.73;;
47529;SDS011;33272;51.922;7.730;2023-06-14T03:09:19;3.73;;;2.30;;
47529;SDS011;33272;51.922;7.730;2023-06-14T03:11:46;3.73;;;2.70;;
47529;SDS011;33272;51.922;7.730;2023-06-14T03:14:13;3.50;;;2.70;;
47529;SDS011;33272;51.922;7.730;2023-06-14T03:16:42;7.43;;;3.03;;
47529;SDS011;33272;51.922;7.730;2023-06-14T03:19:09;4.97;;;2.60;;
47529;SDS011;33272;51.922;7.730;2023-06-14T03:21:36;5.23;;;2.60;;
47529;SDS011;33272;51.922;7.730;2023-06-14T03:24:05;4.03;;;2.87;;
47529;SDS011;33272;51.922;7.730;2023-06-14T03:26:32;5.27;;;2.90;;
47529;SDS011;33272;51.922;7.730;2023-06-14T03:29:02;4.30;;;2.97;;
47529;SDS011;33272;51.922;7.730;2023-06-14T03:31:29;4.53;;;3.03;;
47529;SDS011;33272;51.922;7.730;2023-06-14T03:33:57;4.30;;;2.77;;
47529;SDS011;33272;51.922;7.730;2023-06-14T03:36:24;6.20;;;2.50;;
47529;SDS011;33272;51.922;7.730;2023-06-14T03:38:52;5.13;;;2.97;;
47529;SDS011;33272;51.922;7.730;2023-06-14T03:41:21;5.13;;;2.97;;
47529;SDS011;33272;51.922;7.730;2023-06-14T03:43:48;5.77;;;2.90;;
47529;SDS011;33272;51.922;7.730;2023-06-14T03:46:15;4.23;;;2.30;;
47529;SDS011;33272;51.922;7.730;2023-06-14T03:48:43;3.47;;;2.70;;
47529;SDS011;33272;51.922;7.730;2023-06-14T03:51:10;3.27;;;2.63;;
47529;SDS011;33272;51.922;7.730;2023-06-14T03:53:37;4.03;;;3.00;;
47529;SDS011;33272;51.922;7.730;2023-06-14T03:56:04;2.83;;;2.53;;
47529;SDS011;33272;51.922;7.730;2023-06-14T03:58:32;2.77;;;2.47;;
47529;SDS011;33272;51.922;7.730;2023-06-14T04:00:59;4.93;;;2.83;;
47529;SDS011;33272;51.922;7.730;2023-06-14T04:03:26;4.03;;;2.80;;
47529;SDS011;33272;51.922;7.730;2023-06-14T04:05:54;3.97;;;2.63;;
47529;SDS011;33272;51.922;7.730;2023-06-14T04:08:24;3.07;;;2.47;;
47529;SDS011;33272;51.922;7.730;2023-06-14T04:10:51;3.43;;;2.50;;
47529;SDS011;33272;51.922;7.730;2023-06-14T04:13:18;3.27;;;2.53;;
47529;SDS011;33272;51.922;7.730;2023-06-14T04:15:47;4.70;;;3.30;;
47529;SDS011;33272;51.922;7.730;2023-06-14T04:18:14;3.17;;;2.70;;
47529;SDS011;33272;51.922;7.730;2023-06-14T04:20:41;4.43;;;3.17;;
47529;SDS011;33272;51.922;7.730;2023-06-14T04:23:11;2.90;;;2.23;;
47529;SDS011;33272;51.922;7.730;2023-06-14T04:25:39;5.33;;;2.70;;
47529;SDS011;33272;51.922;7.730;2023-06-14T04:28:10;3.03;;;2.40;;
47529;SDS011;33272;51.922;7.730;2023-06-14T04:30:37;3.77;;;2.60;;
47529;SDS011;33272;51.922;7.730;2023-06-14T04:33:07;7.93;;;2.40;;
47529;SDS011;33272;51.922;7.730;2023-06-14T04:35:34;5.03;;;2.40;;
47529;SDS011;33272;51.922;7.730;2023-06-14T04:38:02;4.70;;;2.40;;
47529;SDS011;33272;51.922;7.730;2023-06-14T04:40:30;4.30;;;2.50;;
47529;SDS011;33272;51.922;7.730;2023-06-14T04:43:01;4.07;;;2.30;;
47529;SDS011;33272;51.922;7.730;2023-06-14T04:45:30;4.17;;;2.80;;
47529;SDS011;33272;51.922;7.730;2023-06-14T04:47:58;4.33;;;2.83;;
47529;SDS011;33272;51.922;7.730;2023-06-14T04:50:26;4.43;;;2.83;;
47529;SDS011;33272;51.922;7.730;2023-06-14T04:52:59;5.43;;;2.80;;
47529;SDS011;33272;51.922;7.730;2023-06-14T04:55:25;5.67;;;2.53;;
47529;SDS011;33272;51.922;7.730;2023-06-14T04:57:52;2.70;;;2.37;;
47529;SDS011;33272;51.922;7.730;2023-06-14T05:00:19;3.47;;;2.40;;
47529;SDS011;33272;51.922;7.730;2023-06-14T05:02:48;5.93;;;2.50;;
47529;SDS011;33272;51.922;7.730;2023-06-14T05:05:16;7.93;;;2.80;;
47529;SDS011;33272;51.922;7.730;2023-06-14T05:07:46;4.07;;;2.50;;
47529;SDS011;33272;51.922;7.730;2023-06-14T05:10:13;4.37;;;3.00;;
47529;SDS011;33272;51.922;7.730;2023-06-14T05:12:40;4.50;;;2.60;;
47529;SDS011;33272;51.922;7.730;2023-06-14T05:15:09;5.50;;;2.33;;
47529;SDS011;33272;51.922;7.730;2023-06-14T05:17:36;3.57;;;2.27;;
47529;SDS011;33272;51.922;7.730;2023-06-14T05:20:06;7.73;;;2.70;;
47529;SDS011;33272;51.922;7.730;2023-06-14T05:22:36;4.27;;;2.40;;
47529;SDS011;33272;51.922;7.730;2023-06-14T05:25:04;4.53;;;2.30;;
47529;SDS011;33272;51.922;7.730;2023-06-14T05:27:32;4.03;;;2.30;;
47529;SDS011;33272;51.922;7.730;2023-06-14T05:30:00;3.67;;;2.70;;
47529;SDS011;33272;51.922;7.730;2023-06-14T05:32:28;3.50;;;2.37;;
47529;SDS011;33272;51.922;7.730;2023-06-14T05:34:55;4.73;;;2.33;;
47529;SDS011;33272;51.922;7.730;2023-06-14T05:37:22;4.63;;;2.30;;
47529;SDS011;33272;51.922;7.730;2023-06-14T05:39:49;3.97;;;2.10;;
47529;SDS011;33272;51.922;7.730;2023-06-14T05:42:18;4.43;;;2.47;;
47529;SDS011;33272;51.922;7.730;2023-06-14T05:44:45;2.93;;;2.50;;
47529;SDS011;33272;51.922;7.730;2023-06-14T05:47:12;6.93;;;2.20;;
47529;SDS011;33272;51.922;7.730;2023-06-14T05:49:39;4.63;;;2.40;;
47529;SDS011;33272;51.922;7.730;2023-06-14T05:52:06;6.40;;;2.40;;
47529;SDS011;33272;51.922;7.730;2023-06-14T05:54:35;3.30;;;2.27;;
47529;SDS011;33272;51.922;7.730;2023-06-14T05:57:02;4.27;;;2.30;;
47529;SDS011;33272;51.922;7.730;2023-06-14T05:59:32;3.27;;;2.40;;
47529;SDS011;33272;51.922;7.730;2023-06-14T06:02:00;2.53;;;2.33;;
47529;SDS011;33272;51.922;7.730;2023-06-14T06:04:27;4.13;;;1.80;;
47529;SDS011;33272;51.922;7.730;2023-06-14T06:06:54;4.33;;;2.70;;
47529;SDS011;33272;51.922;7.730;2023-06-14T06:09:20;3.57;;;2.10;;
47529;SDS011;33272;51.922;7.730;2023-06-14T06:11:48;5.87;;;2.37;;
47529;SDS011;33272;51.922;7.730;2023-06-14T06:14:15;3.33;;;2.40;;
47529;SDS011;33272;51.922;7.730;2023-06-14T06:16:43;2.20;;;1.83;;
47529;SDS011;33272;51.922;7.730;2023-06-14T06:19:10;4.93;;;1.80;;
47529;SDS011;33272;51.922;7.730;2023-06-14T06:21:37;2.37;;;1.77;;
47529;SDS011;33272;51.922;7.730;2023-06-14T06:24:05;3.30;;;2.00;;
47529;SDS011;33272;51.922;7.730;2023-06-14T06:26:32;3.20;;;2.40;;
47529;SDS011;33272;51.922;7.730;2023-06-14T06:28:59;3.43;;;2.00;;
47529;SDS011;33272;51.922;7.730;2023-06-14T06:31:26;3.70;;;1.90;;
47529;SDS011;33272;51.922;7.730;2023-06-14T06:33:54;3.93;;;1.83;;
47529;SDS011;33272;51.922;7.730;2023-06-14T06:36:21;6.30;;;1.90;;
47529;SDS011;33272;51.922;7.730;2023-06-14T06:38:49;3.13;;;1.93;;
47529;SDS011;33272;51.922;7.730;2023-06-14T06:41:16;2.40;;;1.90;;
47529;SDS011;33272;51.922;7.730;2023-06-14T06:43:43;3.60;;;2.10;;
47529;SDS011;33272;51.922;7.730;2023-06-14T06:46:10;3.50;;;2.43;;
47529;SDS011;33272;51.922;7.730;2023-06-14T06:48:37;3.97;;;1.90;;
47529;SDS011;33272;51.922;7.730;2023-06-14T06:51:06;2.23;;;1.87;;
47529;SDS011;33272;51.922;7.730;2023-06-14T06:53:33;3.03;;;2.00;;
47529;SDS011;33272;51.922;7.730;2023-06-14T06:55:59;3.13;;;2.00;;
47529;SDS011;33272;51.922;7.730;2023-06-14T06:58:26;3.27;;;1.60;;
47529;SDS011;33272;51.922;7.730;2023-06-14T07:00:54;2.57;;;1.70;;
47529;SDS011;33272;51.922;7.730;2023-06-14T07:03:21;4.63;;;1.70;;
47529;SDS011;33272;51.922;7.730;2023-06-14T07:05:48;2.83;;;1.43;;
47529;SDS011;33272;51.922;7.730;2023-06-14T07:08:16;3.70;;;1.53;;
47529;SDS011;33272;51.922;7.730;2023-06-14T07:10:43;4.30;;;1.50;;
47529;SDS011;33272;51.922;7.730;2023-06-14T07:13:10;2.63;;;1.43;;
47529;SDS011;33272;51.922;7.730;2023-06-14T07:15:37;4.13;;;1.80;;
47529;SDS011;33272;51.922;7.730;2023-06-14T07:18:04;6.20;;;2.07;;
47529;SDS011;33272;51.922;7.730;2023-06-14T07:20:32;1.53;;;1.43;;
47529;SDS011;33272;51.922;7.730;2023-06-14T07:22:58;10.93;;;2.20;;
47529;SDS011;33272;51.922;7.730;2023-06-14T07:25:27;4.93;;;1.80;;
47529;SDS011;33272;51.922;7.730;2023-06-14T07:27:54;3.40;;;1.77;;
47529;SDS011;33272;51.922;7.730;2023-06-14T07:30:21;4.23;;;1.60;;
47529;SDS011;33272;51.922;7.730;2023-06-14T07:32:50;2.03;;;1.80;;
47529;SDS011;33272;51.922;7.730;2023-06-14T07:35:17;3.53;;;1.63;;
47529;SDS011;33272;51.922;7.730;2023-06-14T07:37:44;2.13;;;1.80;;
47529;SDS011;33272;51.922;7.730;2023-06-14T07:40:12;2.97;;;1.57;;
47529;SDS011;33272;51.922;7.730;2023-06-14T07:42:41;4.43;;;1.60;;
47529;SDS011;33272;51.922;7.730;2023-06-14T07:45:08;3.07;;;1.77;;
47529;SDS011;33272;51.922;7.730;2023-06-14T07:47:38;2.47;;;1.67;;
47529;SDS011;33272;51.922;7.730;2023-06-14T07:50:05;3.27;;;1.37;;
47529;SDS011;33272;51.922;7.730;2023-06-14T07:52:33;1.47;;;1.37;;
47529;SDS011;33272;51.922;7.730;2023-06-14T07:55:00;2.90;;;1.53;;
47529;SDS011;33272;51.922;7.730;2023-06-14T07:57:27;3.37;;;1.57;;
47529;SDS011;33272;51.922;7.730;2023-06-14T07:59:55;1.90;;;1.60;;
47529;SDS011;33272;51.922;7.730;2023-06-14T08:02:22;1.97;;;1.53;;
47529;SDS011;33272;51.922;7.730;2023-06-14T08:04:49;1.70;;;1.30;;
47529;SDS011;33272;51.922;7.730;2023-06-14T08:07:17;4.00;;;1.57;;
47529;SDS011;33272;51.922;7.730;2023-06-14T08:09:45;2.83;;;1.40;;
47529;SDS011;33272;51.922;7.730;2023-06-14T08:12:12;2.43;;;1.40;;
47529;SDS011;33272;51.922;7.730;2023-06-14T08:14:39;5.70;;;1.50;;
47529;SDS011;33272;51.922;7.730;2023-06-14T08:17:07;3.80;;;1.40;;
47529;SDS011;33272;51.922;7.730;2023-06-14T08:19:34;2.73;;;1.20;;
47529;SDS011;33272;51.922;7.730;2023-06-14T08:22:01;2.83;;;1.43;;
47529;SDS011;33272;51.922;7.730;2023-06-14T08:24:29;1.17;;;1.07;;
47529;SDS011;33272;51.922;7.730;2023-06-14T08:26:56;1.30;;;1.10;;
47529;SDS011;33272;51.922;7.730;2023-06-14T08:29:26;2.43;;;1.23;;
47529;SDS011;33272;51.922;7.730;2023-06-14T08:31:54;2.73;;;1.30;;
47529;SDS011;33272;51.922;7.730;2023-06-14T08:34:23;1.20;;;1.10;;
47529;SDS011;33272;51.922;7.730;2023-06-14T08:36:50;1.40;;;1.30;;
47529;SDS011;33272;51.922;7.730;2023-06-14T08:39:17;2.90;;;1.40;;
47529;SDS011;33272;51.922;7.730;2023-06-14T08:41:45;2.87;;;1.10;;
47529;SDS011;33272;51.922;7.730;2023-06-14T08:44:14;1.20;;;1.00;;
47529;SDS011;33272;51.922;7.730;2023-06-14T08:46:41;1.23;;;1.00;;
47529;SDS011;33272;51.922;7.730;2023-06-14T08:49:16;2.73;;;1.10;;
47529;SDS011;33272;51.922;7.730;2023-06-14T08:51:45;4.10;;;1.07;;
47529;SDS011;33272;51.922;7.730;2023-06-14T08:54:16;1.53;;;1.00;;
47529;SDS011;33272;51.922;7.730;2023-06-14T08:56:45;1.50;;;1.00;;
47529;SDS011;33272;51.922;7.730;2023-06-14T08:59:13;1.87;;;1.40;;
47529;SDS011;33272;51.922;7.730;2023-06-14T09:01:43;2.60;;;1.20;;
47529;SDS011;33272;51.922;7.730;2023-06-14T09:04:12;3.07;;;1.00;;
47529;SDS011;33272;51.922;7.730;2023-06-14T09:06:39;2.50;;;1.23;;
47529;SDS011;33272;51.922;7.730;2023-06-14T09:09:08;3.27;;;1.40;;
47529;SDS011;33272;51.922;7.730;2023-06-14T09:11:35;1.30;;;1.07;;
47529;SDS011;33272;51.922;7.730;2023-06-14T09:14:02;2.13;;;1.40;;
47529;SDS011;33272;51.922;7.730;2023-06-14T09:16:31;1.40;;;1.13;;
47529;SDS011;33272;51.922;7.730;2023-06-14T09:18:59;1.67;;;1.20;;
47529;SDS011;33272;51.922;7.730;2023-06-14T09:21:26;2.40;;;1.17;;
47529;SDS011;33272;51.922;7.730;2023-06-14T09:23:53;2.60;;;1.33;;
47529;SDS011;33272;51.922;7.730;2023-06-14T09:26:22;2.33;;;1.20;;
47529;SDS011;33272;51.922;7.730;2023-06-14T09:28:50;2.40;;;1.10;;
47529;SDS011;33272;51.922;7.730;2023-06-14T09:31:18;1.17;;;1.07;;
47529;SDS011;33272;51.922;7.730;2023-06-14T09:33:47;3.13;;;1.23;;
47529;SDS011;33272;51.922;7.730;2023-06-14T09:36:15;3.40;;;1.60;;
47529;SDS011;33272;51.922;7.730;2023-06-14T09:38:51;2.77;;;1.23;;
47529;SDS011;33272;51.922;7.730;2023-06-14T09:41:19;1.97;;;1.40;;
47529;SDS011;33272;51.922;7.730;2023-06-14T09:43:56;3.73;;;1.60;;
47529;SDS011;33272;51.922;7.730;2023-06-14T09:46:25;2.00;;;1.10;;
47529;SDS011;33272;51.922;7.730;2023-06-14T09:48:54;4.93;;;1.53;;
47529;SDS011;33272;51.922;7.730;2023-06-14T09:51:21;1.67;;;1.10;;
47529;SDS011;33272;51.922;7.730;2023-06-14T09:53:49;1.80;;;1.50;;
47529;SDS011;33272;51.922;7.730;2023-06-14T09:56:17;1.23;;;1.10;;
47529;SDS011;33272;51.922;7.730;2023-06-14T09:58:53;1.87;;;1.43;;
47529;SDS011;33272;51.922;7.730;2023-06-14T10:01:23;1.87;;;1.20;;
47529;SDS011;33272;51.922;7.730;2023-06-14T10:03:52;1.70;;;1.17;;
47529;SDS011;33272;51.922;7.730;2023-06-14T10:06:25;2.33;;;1.20;;
47529;SDS011;33272;51.922;7.730;2023-06-14T10:08:56;2.73;;;1.30;;
47529;SDS011;33272;51.922;7.730;2023-06-14T10:11:26;2.03;;;1.20;;
47529;SDS011;33272;51.922;7.730;2023-06-14T10:13:54;2.80;;;1.40;;
47529;SDS011;33272;51.922;7.730;2023-06-14T10:16:23;2.73;;;1.30;;
47529;SDS011;33272;51.922;7.730;2023-06-14T10:18:59;4.83;;;1.33;;
47529;SDS011;33272;51.922;7.730;2023-06-14T10:21:36;13.43;;;2.73;;
47529;SDS011;33272;51.922;7.730;2023-06-14T10:24:26;2.93;;;1.30;;
47529;SDS011;33272;51.922;7.730;2023-06-14T10:26:59;2.83;;;1.20;;
47529;SDS011;33272;51.922;7.730;2023-06-14T10:29:27;1.63;;;1.50;;
47529;SDS011;33272;51.922;7.730;2023-06-14T10:31:57;1.87;;;1.27;;
47529;SDS011;33272;51.922;7.730;2023-06-14T10:34:25;4.27;;;1.70;;
47529;SDS011;33272;51.922;7.730;2023-06-14T10:37:00;2.10;;;1.43;;
47529;SDS011;33272;51.922;7.730;2023-06-14T10:39:30;1.57;;;1.40;;
47529;SDS011;33272;51.922;7.730;2023-06-14T10:42:01;1.53;;;1.20;;
47529;SDS011;33272;51.922;7.730;2023-06-14T10:44:30;2.43;;;1.80;;
47529;SDS011;33272;51.922;7.730;2023-06-14T10:47:09;1.57;;;1.37;;
47529;SDS011;33272;51.922;7.730;2023-06-14T10:49:51;2.77;;;1.50;;
47529;SDS011;33272;51.922;7.730;2023-06-14T10:52:22;1.87;;;1.47;;
47529;SDS011;33272;51.922;7.730;2023-06-14T10:54:59;1.70;;;1.30;;
47529;SDS011;33272;51.922;7.730;2023-06-14T10:57:35;5.03;;;1.80;;
47529;SDS011;33272;51.922;7.730;2023-06-14T11:00:05;2.87;;;1.47;;
47529;SDS011;33272;51.922;7.730;2023-06-14T11:06:15;1.63;;;1.40;;
47529;SDS011;33272;51.922;7.730;2023-06-14T11:08:56;4.67;;;1.80;;
47529;SDS011;33272;51.922;7.730;2023-06-14T11:12:11;4.67;;;1.50;;
47529;SDS011;33272;51.922;7.730;2023-06-14T11:14:40;3.23;;;1.60;;
47529;SDS011;33272;51.922;7.730;2023-06-14T11:17:07;2.63;;;1.43;;
47529;SDS011;33272;51.922;7.730;2023-06-14T11:19:34;3.87;;;1.70;;
47529;SDS011;33272;51.922;7.730;2023-06-14T11:22:01;3.20;;;1.50;;
47529;SDS011;33272;51.922;7.730;2023-06-14T11:24:28;3.00;;;1.70;;
47529;SDS011;33272;51.922;7.730;2023-06-14T11:26:55;3.97;;;1.50;;
47529;SDS011;33272;51.922;7.730;2023-06-14T11:29:23;3.80;;;1.80;;
47529;SDS011;33272;51.922;7.730;2023-06-14T11:31:52;2.80;;;1.57;;
47529;SDS011;33272;51.922;7.730;2023-06-14T11:34:19;3.27;;;2.07;;
47529;SDS011;33272;51.922;7.730;2023-06-14T11:36:46;2.27;;;1.43;;
47529;SDS011;33272;51.922;7.730;2023-06-14T11:39:13;2.40;;;1.80;;
47529;SDS011;33272;51.922;7.730;2023-06-14T11:41:41;2.67;;;1.80;;
47529;SDS011;33272;51.922;7.730;2023-06-14T11:44:09;1.90;;;1.63;;
47529;SDS011;33272;51.922;7.730;2023-06-14T11:46:37;2.83;;;1.67;;
47529;SDS011;33272;51.922;7.730;2023-06-14T11:49:06;2.70;;;1.80;;
47529;SDS011;33272;51.922;7.730;2023-06-14T11:51:34;2.63;;;1.80;;
47529;SDS011;33272;51.922;7.730;2023-06-14T11:54:03;1.90;;;1.60;;
47529;SDS011;33272;51.922;7.730;2023-06-14T11:56:32;1.90;;;1.43;;
47529;SDS011;33272;51.922;7.730;2023-06-14T11:58:59;3.23;;;1.70;;
47529;SDS011;33272;51.922;7.730;2023-06-14T12:01:30;2.77;;;1.70;;
47529;SDS011;33272;51.922;7.730;2023-06-14T12:03:58;1.90;;;1.50;;
47529;SDS011;33272;51.922;7.730;2023-06-14T12:06:28;1.70;;;1.60;;
47529;SDS011;33272;51.922;7.730;2023-06-14T12:09:02;2.27;;;1.87;;
47529;SDS011;33272;51.922;7.730;2023-06-14T12:11:32;1.70;;;1.60;;
47529;SDS011;33272;51.922;7.730;2023-06-14T12:14:00;2.23;;;1.60;;
47529;SDS011;33272;51.922;7.730;2023-06-14T12:16:30;3.70;;;1.80;;
47529;SDS011;33272;51.922;7.730;2023-06-14T12:19:08;2.23;;;1.83;;
47529;SDS011;33272;51.922;7.730;2023-06-14T12:21:40;3.53;;;1.67;;
47529;SDS011;33272;51.922;7.730;2023-06-14T12:24:07;3.20;;;1.50;;
47529;SDS011;33272;51.922;7.730;2023-06-14T12:26:37;1.87;;;1.77;;
47529;SDS011;33272;51.922;7.730;2023-06-14T12:29:06;2.37;;;1.80;;
47529;SDS011;33272;51.922;7.730;2023-06-14T12:31:34;2.83;;;1.70;;
47529;SDS011;33272;51.922;7.730;2023-06-14T12:34:01;2.60;;;1.57;;
47529;SDS011;33272;51.922;7.730;2023-06-14T12:36:29;2.40;;;1.90;;
47529;SDS011;33272;51.922;7.730;2023-06-14T12:38:58;2.60;;;1.50;;
47529;SDS011;33272;51.922;7.730;2023-06-14T12:41:25;3.40;;;1.90;;
47529;SDS011;33272;51.922;7.730;2023-06-14T12:43:52;2.93;;;1.70;;
47529;SDS011;33272;51.922;7.730;2023-06-14T12:46:19;3.60;;;1.70;;
47529;SDS011;33272;51.922;7.730;2023-06-14T12:48:47;12.57;;;2.20;;
47529;SDS011;33272;51.922;7.730;2023-06-14T12:51:13;4.00;;;1.90;;
47529;SDS011;33272;51.922;7.730;2023-06-14T12:53:40;3.13;;;1.57;;
47529;SDS011;33272;51.922;7.730;2023-06-14T12:56:10;2.30;;;2.10;;
47529;SDS011;33272;51.922;7.730;2023-06-14T12:58:37;3.37;;;1.87;;
47529;SDS011;33272;51.922;7.730;2023-06-14T13:01:04;4.20;;;1.70;;
47529;SDS011;33272;51.922;7.730;2023-06-14T13:03:31;2.43;;;1.60;;
47529;SDS011;33272;51.922;7.730;2023-06-14T13:05:59;4.83;;;1.80;;
47529;SDS011;33272;51.922;7.730;2023-06-14T13:08:26;3.60;;;1.90;;
47529;SDS011;33272;51.922;7.730;2023-06-14T13:10:53;2.43;;;1.97;;
47529;SDS011;33272;51.922;7.730;2023-06-14T13:13:22;2.50;;;1.90;;
47529;SDS011;33272;51.922;7.730;2023-06-14T13:15:49;2.53;;;1.90;;
47529;SDS011;33272;51.922;7.730;2023-06-14T13:18:16;5.33;;;2.50;;
47529;SDS011;33272;51.922;7.730;2023-06-14T13:20:45;2.30;;;1.70;;
47529;SDS011;33272;51.922;7.730;2023-06-14T13:23:12;2.43;;;1.80;;
47529;SDS011;33272;51.922;7.730;2023-06-14T13:25:40;3.13;;;1.90;;
47529;SDS011;33272;51.922;7.730;2023-06-14T13:28:07;2.40;;;1.47;;
47529;SDS011;33272;51.922;7.730;2023-06-14T13:30:35;2.73;;;1.70;;
47529;SDS011;33272;51.922;7.730;2023-06-14T13:33:03;2.37;;;1.93;;
47529;SDS011;33272;51.922;7.730;2023-06-14T13:35:30;2.90;;;1.77;;
47529;SDS011;33272;51.922;7.730;2023-06-14T13:37:56;1.97;;;1.63;;
47529;SDS011;33272;51.922;7.730;2023-06-14T13:40:23;2.27;;;1.90;;
47529;SDS011;33272;51.922;7.730;2023-06-14T13:42:51;2.13;;;1.77;;
47529;SDS011;33272;51.922;7.730;2023-06-14T13:45:18;5.50;;;1.83;;
47529;SDS011;33272;51.922;7.730;2023-06-14T13:47:47;2.83;;;1.80;;
47529;SDS011;33272;51.922;7.730;2023-06-14T13:50:14;2.80;;;1.90;;
47529;SDS011;33272;51.922;7.730;2023-06-14T13:52:41;12.93;;;3.10;;
47529;SDS011;33272;51.922;7.730;2023-06-14T13:55:08;1.87;;;1.73;;
47529;SDS011;33272;51.922;7.730;2023-06-14T13:57:35;1.60;;;1.50;;
47529;SDS011;33272;51.922;7.730;2023-06-14T14:00:03;1.80;;;1.70;;
47529;SDS011;33272;51.922;7.730;2023-06-14T14:02:31;3.00;;;2.10;;
47529;SDS011;33272;51.922;7.730;2023-06-14T14:04:59;1.73;;;1.63;;
47529;SDS011;33272;51.922;7.730;2023-06-14T14:07:26;1.83;;;1.63;;
47529;SDS011;33272;51.922;7.730;2023-06-14T14:09:54;4.00;;;1.60;;
47529;SDS011;33272;51.922;7.730;2023-06-14T14:12:22;2.43;;;1.60;;
47529;SDS011;33272;51.922;7.730;2023-06-14T14:14:50;1.50;;;1.40;;
47529;SDS011;33272;51.922;7.730;2023-06-14T14:17:17;1.83;;;1.60;;
47529;SDS011;33272;51.922;7.730;2023-06-14T14:19:44;2.17;;;1.80;;
47529;SDS011;33272;51.922;7.730;2023-06-14T14:22:12;2.13;;;1.93;;
47529;SDS011;33272;51.922;7.730;2023-06-14T14:24:39;2.10;;;1.57;;
47529;SDS011;33272;51.922;7.730;2023-06-14T14:27:06;2.57;;;1.70;;
47529;SDS011;33272;51.922;7.730;2023-06-14T14:29:33;2.90;;;1.97;;
47529;SDS011;33272;51.922;7.730;2023-06-14T14:32:00;2.27;;;1.50;;
47529;SDS011;33272;51.922;7.730;2023-06-14T14:34:27;2.60;;;1.93;;
47529;SDS011;33272;51.922;7.730;2023-06-14T14:36:54;2.07;;;1.67;;
47529;SDS011;33272;51.922;7.730;2023-06-14T14:39:23;3.97;;;1.87;;
47529;SDS011;33272;51.922;7.730;2023-06-14T14:41:50;2.53;;;1.50;;
47529;SDS011;33272;51.922;7.730;2023-06-14T14:44:17;1.73;;;1.53;;
47529;SDS011;33272;51.922;7.730;2023-06-14T14:46:44;2.37;;;1.80;;
47529;SDS011;33272;51.922;7.730;2023-06-14T14:49:11;2.33;;;1.83;;
47529;SDS011;33272;51.922;7.730;2023-06-14T14:51:38;1.97;;;1.50;;
47529;SDS011;33272;51.922;7.730;2023-06-14T14:54:05;1.47;;;1.37;;
47529;SDS011;33272;51.922;7.730;2023-06-14T14:56:33;2.50;;;1.37;;
47529;SDS011;33272;51.922;7.730;2023-06-14T14:59:02;2.57;;;1.67;;